Nearby METAR Reports

 

EGFF - Cardiff-Wales Ar, United Kingdom
Distance from station: SSW 23km
Updated: 18/06/2019 14:20
Mostly cloudy
Mostly cloudy
 Wind from ESE
Wind: ESE 9 km/h
Temperature: 14°C
Dew Point: 12°C
Humidity: 88%
Barometer: 1013 hPa
Clouds: Mostly cloudy
Visibility: 10 km
Cloud details: Mostly cloudy 1189 m
Mostly cloudy 1463 m
2019/06/18 13:20 EGFF 181320Z 11005KT 070V140 9999 BKN039 BKN048 14/12 Q1013 RESHRA
EGGD - Bristol/Lulsgate, United Kingdom
Distance from station: ESE 43km
Updated: 18/06/2019 14:20
Few Clouds
Few Clouds
 Wind from ESE
Wind: ESE 7 km/h
Temperature: 15°C
Dew Point: 11°C
Humidity: 77%
Barometer: 1013 hPa
Clouds: Few Clouds
Visibility: 10 km
Cloud details: Few Clouds 1128 m
2019/06/18 13:20 EGGD 181320Z AUTO 11004KT 070V140 9999 FEW037 15/11 Q1013
 
EGDY - Yeovilton (navy), United Kingdom
Distance from station: SE 77km
Updated: 18/06/2019 14:22
Light rain, Overcast
Light rain, Overcast
 Wind from SE
Wind: SE 7 km/h
Temperature: 15°C
Dew Point: 13°C
Humidity: 88%
Barometer: 1013 hPa
Summary: Light rain
Clouds: Overcast
Visibility: 9 km
Cloud details: Few Clouds 366 m
Partly cloudy 549 m
Overcast 2438 m
2019/06/18 13:22 EGDY 181322Z 14004KT 9000 -RA FEW012 SCT018 OVC080 15/13 Q1013 NOSIG RMK WHT WHT
EGTE - Exeter Airport, United Kingdom
Distance from station: S 96km
Updated: 18/06/2019 13:50
Light rain, Showers, Partly cloudy
Light rain, Showers, Partly cloudy
 Wind from SSE
Wind: SSE 7 km/h
Temperature: 15°C
Dew Point: 13°C
Humidity: 88%
Barometer: 1013 hPa
Summary: Light rain, Showers
Clouds: Partly cloudy
Visibility: 10 km
Cloud details: Few Clouds 610 m
Partly cloudy 914 m
2019/06/18 12:50 EGTE 181250Z 15004KT 120V180 9999 -SHRA FEW020 SCT030 15/13 Q1013